Decoded Metar for KEVW (EVANSTON in WY, USA) (IATA:EVW) | Meteo·Mobile Aviation Weather
aviador You're here:

KEVW Decoded Metar

EVANSTON in WY, USA
Report Time2018-09-18 14:53:00
UTC Time2018-09-18 15:09:44
Flight Rules vfr VFR
Wind200° at 05 kt
W.Decomp.*RWY 23: 3.7 kt HW 3.4 kt LCW
W.Rank200° ranks 8
Current wind is below 200° avg. (7.7)
Visibility9999 m
Phenomena:N/A
Clouds:N/A
Expected CloudBase > 6,800 ft AGL from Temp-Dew spread
CeilingNone
Temp16°C (ISA +15)
Dew Point-1°C (31% RH)
AAT12.1°C
QNH1021 hPa
Density Alt8,711 ft
Elevation7,142 ft
Report Wrong Elevation
Raw Report
KEVW 181453Z AUTO 20005KT 10SM CLR 16/M01 A3014 RMK AO2 SLP116
T01611011 51006=

Extra information for KEVW:More info

Metar Taf Metar & Taf Last 4 Metars F.Rules Stats Wind Profile Meteogram Temp Stats Airport Information Weather charts Add Link Nearby VenuesMetar ALERT Operation Metar Decoded Social comments

AIRNAV info for KEVW